sensor_id;sensor_type;location;lat;lon;timestamp;P1;durP1;ratioP1;P2;durP2;ratioP2
82265;SDS011;71866;53.340;-6.308;2024-03-02T00:01:37;6.40;;;1.92;;
82265;SDS011;71866;53.340;-6.308;2024-03-02T00:04:05;7.10;;;2.00;;
82265;SDS011;71866;53.340;-6.308;2024-03-02T00:06:31;4.15;;;1.80;;
82265;SDS011;71866;53.340;-6.308;2024-03-02T00:08:58;5.65;;;1.85;;
82265;SDS011;71866;53.340;-6.308;2024-03-02T00:11:25;6.57;;;1.80;;
82265;SDS011;71866;53.340;-6.308;2024-03-02T00:13:52;8.25;;;1.88;;
82265;SDS011;71866;53.340;-6.308;2024-03-02T00:16:20;6.40;;;1.80;;
82265;SDS011;71866;53.340;-6.308;2024-03-02T00:18:47;4.72;;;1.70;;
82265;SDS011;71866;53.340;-6.308;2024-03-02T00:21:14;3.33;;;1.50;;
82265;SDS011;71866;53.340;-6.308;2024-03-02T00:23:41;5.78;;;1.52;;
82265;SDS011;71866;53.340;-6.308;2024-03-02T00:26:09;4.63;;;1.50;;
82265;SDS011;71866;53.340;-6.308;2024-03-02T00:28:38;5.68;;;1.40;;
82265;SDS011;71866;53.340;-6.308;2024-03-02T00:31:11;4.37;;;1.37;;
82265;SDS011;71866;53.340;-6.308;2024-03-02T00:36:04;4.65;;;1.63;;
82265;SDS011;71866;53.340;-6.308;2024-03-02T00:38:32;5.57;;;1.50;;
82265;SDS011;71866;53.340;-6.308;2024-03-02T00:40:59;5.07;;;1.50;;
82265;SDS011;71866;53.340;-6.308;2024-03-02T00:46:02;5.03;;;1.40;;
82265;SDS011;71866;53.340;-6.308;2024-03-02T00:48:29;4.38;;;1.15;;
82265;SDS011;71866;53.340;-6.308;2024-03-02T00:50:56;4.93;;;1.23;;
82265;SDS011;71866;53.340;-6.308;2024-03-02T00:53:24;5.93;;;1.20;;
82265;SDS011;71866;53.340;-6.308;2024-03-02T00:55:52;4.72;;;1.20;;
82265;SDS011;71866;53.340;-6.308;2024-03-02T00:58:20;3.97;;;1.10;;
82265;SDS011;71866;53.340;-6.308;2024-03-02T01:00:46;5.80;;;1.30;;
82265;SDS011;71866;53.340;-6.308;2024-03-02T01:03:14;4.03;;;1.15;;
82265;SDS011;71866;53.340;-6.308;2024-03-02T01:05:41;4.97;;;1.30;;
82265;SDS011;71866;53.340;-6.308;2024-03-02T01:08:09;5.03;;;1.20;;
82265;SDS011;71866;53.340;-6.308;2024-03-02T01:10:36;3.85;;;1.42;;
82265;SDS011;71866;53.340;-6.308;2024-03-02T01:13:02;5.32;;;1.35;;
82265;SDS011;71866;53.340;-6.308;2024-03-02T01:15:30;5.18;;;1.40;;
82265;SDS011;71866;53.340;-6.308;2024-03-02T01:17:56;5.63;;;1.20;;
82265;SDS011;71866;53.340;-6.308;2024-03-02T01:20:24;3.75;;;1.13;;
82265;SDS011;71866;53.340;-6.308;2024-03-02T01:22:50;3.88;;;1.25;;
82265;SDS011;71866;53.340;-6.308;2024-03-02T01:25:17;4.60;;;1.55;;
82265;SDS011;71866;53.340;-6.308;2024-03-02T01:27:44;4.80;;;1.80;;
82265;SDS011;71866;53.340;-6.308;2024-03-02T01:30:15;3.93;;;1.60;;
82265;SDS011;71866;53.340;-6.308;2024-03-02T01:32:42;3.43;;;1.30;;
82265;SDS011;71866;53.340;-6.308;2024-03-02T01:35:08;4.57;;;1.60;;
82265;SDS011;71866;53.340;-6.308;2024-03-02T01:37:36;6.43;;;1.60;;
82265;SDS011;71866;53.340;-6.308;2024-03-02T01:40:02;5.75;;;1.52;;
82265;SDS011;71866;53.340;-6.308;2024-03-02T01:42:30;5.93;;;1.40;;
82265;SDS011;71866;53.340;-6.308;2024-03-02T01:44:56;6.32;;;1.52;;
82265;SDS011;71866;53.340;-6.308;2024-03-02T01:47:23;4.40;;;1.45;;
82265;SDS011;71866;53.340;-6.308;2024-03-02T01:49:50;4.50;;;1.23;;
82265;SDS011;71866;53.340;-6.308;2024-03-02T01:52:18;5.32;;;1.30;;
82265;SDS011;71866;53.340;-6.308;2024-03-02T01:54:44;7.18;;;1.77;;
82265;SDS011;71866;53.340;-6.308;2024-03-02T01:57:11;4.40;;;1.48;;
82265;SDS011;71866;53.340;-6.308;2024-03-02T01:59:38;6.97;;;2.00;;
82265;SDS011;71866;53.340;-6.308;2024-03-02T02:02:05;4.07;;;1.30;;
82265;SDS011;71866;53.340;-6.308;2024-03-02T02:04:32;4.33;;;1.40;;
82265;SDS011;71866;53.340;-6.308;2024-03-02T02:07:00;4.22;;;1.50;;
82265;SDS011;71866;53.340;-6.308;2024-03-02T02:09:27;6.82;;;1.30;;
82265;SDS011;71866;53.340;-6.308;2024-03-02T02:11:54;5.40;;;1.60;;
82265;SDS011;71866;53.340;-6.308;2024-03-02T02:14:22;5.93;;;1.38;;
82265;SDS011;71866;53.340;-6.308;2024-03-02T02:16:48;5.70;;;1.60;;
82265;SDS011;71866;53.340;-6.308;2024-03-02T02:19:14;5.80;;;1.67;;
82265;SDS011;71866;53.340;-6.308;2024-03-02T02:21:42;7.03;;;1.30;;
82265;SDS011;71866;53.340;-6.308;2024-03-02T02:24:09;4.60;;;1.43;;
82265;SDS011;71866;53.340;-6.308;2024-03-02T02:26:35;4.13;;;1.20;;
82265;SDS011;71866;53.340;-6.308;2024-03-02T02:29:03;5.13;;;1.20;;
82265;SDS011;71866;53.340;-6.308;2024-03-02T02:31:39;3.75;;;1.30;;
82265;SDS011;71866;53.340;-6.308;2024-03-02T02:34:06;4.90;;;1.38;;
82265;SDS011;71866;53.340;-6.308;2024-03-02T02:36:33;5.50;;;1.38;;
82265;SDS011;71866;53.340;-6.308;2024-03-02T02:39:00;6.45;;;1.23;;
82265;SDS011;71866;53.340;-6.308;2024-03-02T02:41:29;6.10;;;1.40;;
82265;SDS011;71866;53.340;-6.308;2024-03-02T02:43:56;6.40;;;1.20;;
82265;SDS011;71866;53.340;-6.308;2024-03-02T02:46:23;5.97;;;1.50;;
82265;SDS011;71866;53.340;-6.308;2024-03-02T02:48:49;6.03;;;1.30;;
82265;SDS011;71866;53.340;-6.308;2024-03-02T02:51:17;4.32;;;1.25;;
82265;SDS011;71866;53.340;-6.308;2024-03-02T02:53:43;5.05;;;1.33;;
82265;SDS011;71866;53.340;-6.308;2024-03-02T02:56:10;7.88;;;1.25;;
82265;SDS011;71866;53.340;-6.308;2024-03-02T02:58:37;6.22;;;1.42;;
82265;SDS011;71866;53.340;-6.308;2024-03-02T03:01:05;6.15;;;1.50;;
82265;SDS011;71866;53.340;-6.308;2024-03-02T03:03:31;5.45;;;1.40;;
82265;SDS011;71866;53.340;-6.308;2024-03-02T03:05:59;5.38;;;1.17;;
82265;SDS011;71866;53.340;-6.308;2024-03-02T03:08:25;6.65;;;1.70;;
82265;SDS011;71866;53.340;-6.308;2024-03-02T03:10:53;6.28;;;1.30;;
82265;SDS011;71866;53.340;-6.308;2024-03-02T03:13:19;6.75;;;1.30;;
82265;SDS011;71866;53.340;-6.308;2024-03-02T03:15:46;5.70;;;1.38;;
82265;SDS011;71866;53.340;-6.308;2024-03-02T03:18:13;6.88;;;1.70;;
82265;SDS011;71866;53.340;-6.308;2024-03-02T03:20:40;5.28;;;1.30;;
82265;SDS011;71866;53.340;-6.308;2024-03-02T03:23:06;6.90;;;1.30;;
82265;SDS011;71866;53.340;-6.308;2024-03-02T03:25:34;3.70;;;1.10;;
82265;SDS011;71866;53.340;-6.308;2024-03-02T03:28:00;3.33;;;1.00;;
82265;SDS011;71866;53.340;-6.308;2024-03-02T03:30:28;7.45;;;1.42;;
82265;SDS011;71866;53.340;-6.308;2024-03-02T03:32:54;4.95;;;1.20;;
82265;SDS011;71866;53.340;-6.308;2024-03-02T03:35:21;6.88;;;1.20;;
82265;SDS011;71866;53.340;-6.308;2024-03-02T03:37:48;5.00;;;1.20;;
82265;SDS011;71866;53.340;-6.308;2024-03-02T03:40:14;7.50;;;1.45;;
82265;SDS011;71866;53.340;-6.308;2024-03-02T03:42:41;5.82;;;1.20;;
82265;SDS011;71866;53.340;-6.308;2024-03-02T03:45:08;8.00;;;1.33;;
82265;SDS011;71866;53.340;-6.308;2024-03-02T03:47:35;7.82;;;1.40;;
82265;SDS011;71866;53.340;-6.308;2024-03-02T03:50:01;5.15;;;1.50;;
82265;SDS011;71866;53.340;-6.308;2024-03-02T03:52:29;6.15;;;1.50;;
82265;SDS011;71866;53.340;-6.308;2024-03-02T03:54:55;5.53;;;1.20;;
82265;SDS011;71866;53.340;-6.308;2024-03-02T03:57:22;6.15;;;1.40;;
82265;SDS011;71866;53.340;-6.308;2024-03-02T03:59:50;5.72;;;1.20;;
82265;SDS011;71866;53.340;-6.308;2024-03-02T04:02:16;5.25;;;1.20;;
82265;SDS011;71866;53.340;-6.308;2024-03-02T04:04:42;4.55;;;1.08;;
82265;SDS011;71866;53.340;-6.308;2024-03-02T04:07:10;6.55;;;1.60;;
82265;SDS011;71866;53.340;-6.308;2024-03-02T04:09:36;6.00;;;1.50;;
82265;SDS011;71866;53.340;-6.308;2024-03-02T04:12:04;4.50;;;1.00;;
82265;SDS011;71866;53.340;-6.308;2024-03-02T04:14:30;6.85;;;1.65;;
82265;SDS011;71866;53.340;-6.308;2024-03-02T04:16:57;6.93;;;1.50;;
82265;SDS011;71866;53.340;-6.308;2024-03-02T04:19:24;7.32;;;1.20;;
82265;SDS011;71866;53.340;-6.308;2024-03-02T04:21:51;5.10;;;1.30;;
82265;SDS011;71866;53.340;-6.308;2024-03-02T04:24:18;7.53;;;1.80;;
82265;SDS011;71866;53.340;-6.308;2024-03-02T04:26:45;7.45;;;1.50;;
82265;SDS011;71866;53.340;-6.308;2024-03-02T04:29:12;5.10;;;1.20;;
82265;SDS011;71866;53.340;-6.308;2024-03-02T04:31:39;6.93;;;1.58;;
82265;SDS011;71866;53.340;-6.308;2024-03-02T04:34:06;6.00;;;1.25;;
82265;SDS011;71866;53.340;-6.308;2024-03-02T04:36:33;5.78;;;1.30;;
82265;SDS011;71866;53.340;-6.308;2024-03-02T04:39:00;7.03;;;1.35;;
82265;SDS011;71866;53.340;-6.308;2024-03-02T04:41:27;6.45;;;1.20;;
82265;SDS011;71866;53.340;-6.308;2024-03-02T04:43:53;9.95;;;2.25;;
82265;SDS011;71866;53.340;-6.308;2024-03-02T04:46:21;6.40;;;1.70;;
82265;SDS011;71866;53.340;-6.308;2024-03-02T04:48:47;8.82;;;1.90;;
82265;SDS011;71866;53.340;-6.308;2024-03-02T04:51:15;7.17;;;1.63;;
82265;SDS011;71866;53.340;-6.308;2024-03-02T04:53:41;7.77;;;1.70;;
82265;SDS011;71866;53.340;-6.308;2024-03-02T04:56:08;6.57;;;1.40;;
82265;SDS011;71866;53.340;-6.308;2024-03-02T04:58:35;4.85;;;1.20;;
82265;SDS011;71866;53.340;-6.308;2024-03-02T05:01:02;7.55;;;1.20;;
82265;SDS011;71866;53.340;-6.308;2024-03-02T05:03:28;5.95;;;1.30;;
82265;SDS011;71866;53.340;-6.308;2024-03-02T05:05:56;5.22;;;1.45;;
82265;SDS011;71866;53.340;-6.308;2024-03-02T05:08:22;9.50;;;1.60;;
82265;SDS011;71866;53.340;-6.308;2024-03-02T05:10:49;7.88;;;1.58;;
82265;SDS011;71866;53.340;-6.308;2024-03-02T05:13:17;8.55;;;1.40;;
82265;SDS011;71866;53.340;-6.308;2024-03-02T05:15:44;5.78;;;1.33;;
82265;SDS011;71866;53.340;-6.308;2024-03-02T05:18:11;7.15;;;1.67;;
82265;SDS011;71866;53.340;-6.308;2024-03-02T05:20:38;7.25;;;1.77;;
82265;SDS011;71866;53.340;-6.308;2024-03-02T05:23:05;7.43;;;1.70;;
82265;SDS011;71866;53.340;-6.308;2024-03-02T05:25:32;5.70;;;1.50;;
82265;SDS011;71866;53.340;-6.308;2024-03-02T05:27:59;5.17;;;1.23;;
82265;SDS011;71866;53.340;-6.308;2024-03-02T05:30:26;8.27;;;1.97;;
82265;SDS011;71866;53.340;-6.308;2024-03-02T05:32:53;6.18;;;1.48;;
82265;SDS011;71866;53.340;-6.308;2024-03-02T05:35:21;4.40;;;1.35;;
82265;SDS011;71866;53.340;-6.308;2024-03-02T05:37:47;6.18;;;1.35;;
82265;SDS011;71866;53.340;-6.308;2024-03-02T05:40:14;5.25;;;1.13;;
82265;SDS011;71866;53.340;-6.308;2024-03-02T05:42:41;6.03;;;1.35;;
82265;SDS011;71866;53.340;-6.308;2024-03-02T05:45:08;5.72;;;1.20;;
82265;SDS011;71866;53.340;-6.308;2024-03-02T05:47:35;8.03;;;1.20;;
82265;SDS011;71866;53.340;-6.308;2024-03-02T05:50:02;7.97;;;1.40;;
82265;SDS011;71866;53.340;-6.308;2024-03-02T05:52:28;6.03;;;1.30;;
82265;SDS011;71866;53.340;-6.308;2024-03-02T05:54:56;6.43;;;1.65;;
82265;SDS011;71866;53.340;-6.308;2024-03-02T05:57:22;7.05;;;1.33;;
82265;SDS011;71866;53.340;-6.308;2024-03-02T05:59:49;7.07;;;1.38;;
82265;SDS011;71866;53.340;-6.308;2024-03-02T06:02:16;7.88;;;1.30;;
82265;SDS011;71866;53.340;-6.308;2024-03-02T06:04:43;8.02;;;1.50;;
82265;SDS011;71866;53.340;-6.308;2024-03-02T06:07:09;6.50;;;1.33;;
82265;SDS011;71866;53.340;-6.308;2024-03-02T06:09:37;5.38;;;1.40;;
82265;SDS011;71866;53.340;-6.308;2024-03-02T06:12:03;8.10;;;1.30;;
82265;SDS011;71866;53.340;-6.308;2024-03-02T06:14:31;5.40;;;1.03;;
82265;SDS011;71866;53.340;-6.308;2024-03-02T06:16:57;6.87;;;1.10;;
82265;SDS011;71866;53.340;-6.308;2024-03-02T06:19:23;5.63;;;1.20;;
82265;SDS011;71866;53.340;-6.308;2024-03-02T06:21:51;7.67;;;1.40;;
82265;SDS011;71866;53.340;-6.308;2024-03-02T06:24:17;5.87;;;1.23;;
82265;SDS011;71866;53.340;-6.308;2024-03-02T06:26:44;6.97;;;1.10;;
82265;SDS011;71866;53.340;-6.308;2024-03-02T06:29:11;6.78;;;1.45;;
82265;SDS011;71866;53.340;-6.308;2024-03-02T06:31:38;5.15;;;1.30;;
82265;SDS011;71866;53.340;-6.308;2024-03-02T06:34:05;6.47;;;1.02;;
82265;SDS011;71866;53.340;-6.308;2024-03-02T06:36:33;6.72;;;1.25;;
82265;SDS011;71866;53.340;-6.308;2024-03-02T06:39:00;4.82;;;1.10;;
82265;SDS011;71866;53.340;-6.308;2024-03-02T06:41:27;4.93;;;1.13;;
82265;SDS011;71866;53.340;-6.308;2024-03-02T06:43:54;4.43;;;0.95;;
82265;SDS011;71866;53.340;-6.308;2024-03-02T06:46:21;5.47;;;1.08;;
82265;SDS011;71866;53.340;-6.308;2024-03-02T06:48:47;4.25;;;1.20;;
82265;SDS011;71866;53.340;-6.308;2024-03-02T06:51:15;4.38;;;1.25;;
82265;SDS011;71866;53.340;-6.308;2024-03-02T06:53:41;3.55;;;0.93;;
82265;SDS011;71866;53.340;-6.308;2024-03-02T06:56:08;5.18;;;1.17;;
82265;SDS011;71866;53.340;-6.308;2024-03-02T06:58:35;5.53;;;1.42;;
82265;SDS011;71866;53.340;-6.308;2024-03-02T07:01:02;4.13;;;1.00;;
82265;SDS011;71866;53.340;-6.308;2024-03-02T07:03:29;5.70;;;1.30;;
82265;SDS011;71866;53.340;-6.308;2024-03-02T07:05:56;5.22;;;1.10;;
82265;SDS011;71866;53.340;-6.308;2024-03-02T07:08:23;6.65;;;1.20;;
82265;SDS011;71866;53.340;-6.308;2024-03-02T07:10:50;5.70;;;1.60;;
82265;SDS011;71866;53.340;-6.308;2024-03-02T07:13:17;4.63;;;1.90;;
82265;SDS011;71866;53.340;-6.308;2024-03-02T07:15:44;4.53;;;1.55;;
82265;SDS011;71866;53.340;-6.308;2024-03-02T07:18:10;5.53;;;1.50;;
82265;SDS011;71866;53.340;-6.308;2024-03-02T07:20:38;10.07;;;2.80;;
82265;SDS011;71866;53.340;-6.308;2024-03-02T07:23:05;5.80;;;1.90;;
82265;SDS011;71866;53.340;-6.308;2024-03-02T07:25:32;6.13;;;2.40;;
82265;SDS011;71866;53.340;-6.308;2024-03-02T07:28:02;8.40;;;3.43;;
82265;SDS011;71866;53.340;-6.308;2024-03-02T07:30:29;11.55;;;5.20;;
82265;SDS011;71866;53.340;-6.308;2024-03-02T07:32:59;12.47;;;5.53;;
82265;SDS011;71866;53.340;-6.308;2024-03-02T07:35:26;9.98;;;3.75;;
82265;SDS011;71866;53.340;-6.308;2024-03-02T07:37:53;10.05;;;3.15;;
82265;SDS011;71866;53.340;-6.308;2024-03-02T07:40:20;4.60;;;1.70;;
82265;SDS011;71866;53.340;-6.308;2024-03-02T07:42:46;4.50;;;1.30;;
82265;SDS011;71866;53.340;-6.308;2024-03-02T07:45:13;6.57;;;1.58;;
82265;SDS011;71866;53.340;-6.308;2024-03-02T07:47:41;5.20;;;1.90;;
82265;SDS011;71866;53.340;-6.308;2024-03-02T07:50:07;3.50;;;1.13;;
82265;SDS011;71866;53.340;-6.308;2024-03-02T07:52:34;3.25;;;1.00;;
82265;SDS011;71866;53.340;-6.308;2024-03-02T07:55:01;6.45;;;1.25;;
82265;SDS011;71866;53.340;-6.308;2024-03-02T07:57:28;4.50;;;1.00;;
82265;SDS011;71866;53.340;-6.308;2024-03-02T07:59:55;3.80;;;0.90;;
82265;SDS011;71866;53.340;-6.308;2024-03-02T08:02:22;3.37;;;0.80;;
82265;SDS011;71866;53.340;-6.308;2024-03-02T08:04:49;4.60;;;1.00;;
82265;SDS011;71866;53.340;-6.308;2024-03-02T08:07:18;3.40;;;0.98;;
82265;SDS011;71866;53.340;-6.308;2024-03-02T08:09:44;5.32;;;1.48;;
82265;SDS011;71866;53.340;-6.308;2024-03-02T08:12:11;3.80;;;1.05;;
82265;SDS011;71866;53.340;-6.308;2024-03-02T08:14:38;2.80;;;0.90;;
82265;SDS011;71866;53.340;-6.308;2024-03-02T08:17:04;4.57;;;0.82;;
82265;SDS011;71866;53.340;-6.308;2024-03-02T08:19:31;3.88;;;0.88;;
82265;SDS011;71866;53.340;-6.308;2024-03-02T08:21:59;4.10;;;0.90;;
82265;SDS011;71866;53.340;-6.308;2024-03-02T08:24:27;3.90;;;0.80;;
82265;SDS011;71866;53.340;-6.308;2024-03-02T08:26:54;2.42;;;0.80;;
82265;SDS011;71866;53.340;-6.308;2024-03-02T08:29:21;2.22;;;0.68;;
82265;SDS011;71866;53.340;-6.308;2024-03-02T08:31:48;3.40;;;0.82;;
82265;SDS011;71866;53.340;-6.308;2024-03-02T08:34:16;2.17;;;0.65;;
82265;SDS011;71866;53.340;-6.308;2024-03-02T08:36:42;1.90;;;0.70;;
82265;SDS011;71866;53.340;-6.308;2024-03-02T08:39:10;2.70;;;1.00;;
82265;SDS011;71866;53.340;-6.308;2024-03-02T08:41:36;2.25;;;0.70;;
82265;SDS011;71866;53.340;-6.308;2024-03-02T08:44:03;3.13;;;1.10;;
82265;SDS011;71866;53.340;-6.308;2024-03-02T08:46:30;3.58;;;0.90;;
82265;SDS011;71866;53.340;-6.308;2024-03-02T08:48:58;4.43;;;1.10;;
82265;SDS011;71866;53.340;-6.308;2024-03-02T08:51:24;3.88;;;1.10;;
82265;SDS011;71866;53.340;-6.308;2024-03-02T08:53:52;3.95;;;0.60;;
82265;SDS011;71866;53.340;-6.308;2024-03-02T08:56:18;2.95;;;0.70;;
82265;SDS011;71866;53.340;-6.308;2024-03-02T08:58:45;4.20;;;0.63;;
82265;SDS011;71866;53.340;-6.308;2024-03-02T09:01:12;2.85;;;0.55;;
82265;SDS011;71866;53.340;-6.308;2024-03-02T09:03:39;3.65;;;0.60;;
82265;SDS011;71866;53.340;-6.308;2024-03-02T09:06:06;3.83;;;0.77;;
82265;SDS011;71866;53.340;-6.308;2024-03-02T09:08:33;3.00;;;0.70;;
82265;SDS011;71866;53.340;-6.308;2024-03-02T09:10:59;3.03;;;0.63;;
82265;SDS011;71866;53.340;-6.308;2024-03-02T09:13:27;3.50;;;0.80;;
82265;SDS011;71866;53.340;-6.308;2024-03-02T09:15:53;2.67;;;0.75;;
82265;SDS011;71866;53.340;-6.308;2024-03-02T09:18:20;3.88;;;0.90;;
82265;SDS011;71866;53.340;-6.308;2024-03-02T09:20:48;4.63;;;0.80;;
82265;SDS011;71866;53.340;-6.308;2024-03-02T09:23:14;4.00;;;0.63;;
82265;SDS011;71866;53.340;-6.308;2024-03-02T09:25:41;2.70;;;0.60;;
82265;SDS011;71866;53.340;-6.308;2024-03-02T09:28:08;4.10;;;0.70;;
82265;SDS011;71866;53.340;-6.308;2024-03-02T09:30:35;4.60;;;1.27;;
82265;SDS011;71866;53.340;-6.308;2024-03-02T09:33:04;2.25;;;0.60;;
82265;SDS011;71866;53.340;-6.308;2024-03-02T09:35:33;3.20;;;0.75;;
82265;SDS011;71866;53.340;-6.308;2024-03-02T09:38:01;2.30;;;1.05;;
82265;SDS011;71866;53.340;-6.308;2024-03-02T09:40:28;2.45;;;0.90;;
82265;SDS011;71866;53.340;-6.308;2024-03-02T09:42:55;4.10;;;0.93;;
82265;SDS011;71866;53.340;-6.308;2024-03-02T09:45:23;4.23;;;1.13;;
82265;SDS011;71866;53.340;-6.308;2024-03-02T09:47:50;5.87;;;1.00;;
82265;SDS011;71866;53.340;-6.308;2024-03-02T09:50:17;5.40;;;1.50;;
82265;SDS011;71866;53.340;-6.308;2024-03-02T09:52:48;4.47;;;1.50;;
82265;SDS011;71866;53.340;-6.308;2024-03-02T09:55:15;5.68;;;1.33;;
82265;SDS011;71866;53.340;-6.308;2024-03-02T09:57:41;4.45;;;1.10;;
82265;SDS011;71866;53.340;-6.308;2024-03-02T10:00:09;5.38;;;1.13;;
82265;SDS011;71866;53.340;-6.308;2024-03-02T10:02:36;2.50;;;0.95;;
82265;SDS011;71866;53.340;-6.308;2024-03-02T10:05:03;2.22;;;0.80;;
82265;SDS011;71866;53.340;-6.308;2024-03-02T10:07:29;3.83;;;0.90;;
82265;SDS011;71866;53.340;-6.308;2024-03-02T10:09:57;4.53;;;0.80;;
82265;SDS011;71866;53.340;-6.308;2024-03-02T10:12:23;3.28;;;0.75;;
82265;SDS011;71866;53.340;-6.308;2024-03-02T10:14:51;4.50;;;0.70;;
82265;SDS011;71866;53.340;-6.308;2024-03-02T10:17:30;4.32;;;0.65;;
82265;SDS011;71866;53.340;-6.308;2024-03-02T10:19:58;3.97;;;0.70;;
82265;SDS011;71866;53.340;-6.308;2024-03-02T10:22:26;3.20;;;0.73;;
82265;SDS011;71866;53.340;-6.308;2024-03-02T10:24:52;3.75;;;0.85;;
82265;SDS011;71866;53.340;-6.308;2024-03-02T10:27:26;2.75;;;0.70;;
82265;SDS011;71866;53.340;-6.308;2024-03-02T10:29:53;2.63;;;0.97;;
82265;SDS011;71866;53.340;-6.308;2024-03-02T10:32:22;4.63;;;0.80;;
82265;SDS011;71866;53.340;-6.308;2024-03-02T10:34:49;4.18;;;0.80;;
82265;SDS011;71866;53.340;-6.308;2024-03-02T10:37:16;2.60;;;0.70;;
82265;SDS011;71866;53.340;-6.308;2024-03-02T10:39:45;2.08;;;0.70;;
82265;SDS011;71866;53.340;-6.308;2024-03-02T10:42:14;3.88;;;0.80;;
82265;SDS011;71866;53.340;-6.308;2024-03-02T10:44:42;2.22;;;0.75;;
82265;SDS011;71866;53.340;-6.308;2024-03-02T10:47:08;3.85;;;0.80;;
82265;SDS011;71866;53.340;-6.308;2024-03-02T10:49:35;2.70;;;0.70;;
82265;SDS011;71866;53.340;-6.308;2024-03-02T10:52:04;2.33;;;0.60;;
82265;SDS011;71866;53.340;-6.308;2024-03-02T10:54:31;3.75;;;1.00;;
82265;SDS011;71866;53.340;-6.308;2024-03-02T10:57:01;2.55;;;0.60;;
82265;SDS011;71866;53.340;-6.308;2024-03-02T10:59:32;2.95;;;0.70;;
82265;SDS011;71866;53.340;-6.308;2024-03-02T11:02:00;2.30;;;0.50;;
82265;SDS011;71866;53.340;-6.308;2024-03-02T11:04:31;2.00;;;0.50;;
82265;SDS011;71866;53.340;-6.308;2024-03-02T11:07:00;1.60;;;0.50;;
82265;SDS011;71866;53.340;-6.308;2024-03-02T11:09:28;2.80;;;0.40;;
82265;SDS011;71866;53.340;-6.308;2024-03-02T11:12:00;2.95;;;0.60;;
82265;SDS011;71866;53.340;-6.308;2024-03-02T11:14:28;2.47;;;0.60;;
82265;SDS011;71866;53.340;-6.308;2024-03-02T11:16:57;1.67;;;0.60;;
82265;SDS011;71866;53.340;-6.308;2024-03-02T11:19:23;3.28;;;0.75;;
82265;SDS011;71866;53.340;-6.308;2024-03-02T11:21:51;2.88;;;0.85;;
82265;SDS011;71866;53.340;-6.308;2024-03-02T11:26:51;2.15;;;0.60;;
82265;SDS011;71866;53.340;-6.308;2024-03-02T11:30:03;2.55;;;0.60;;
82265;SDS011;71866;53.340;-6.308;2024-03-02T11:32:26;1.55;;;0.77;;
82265;SDS011;71866;53.340;-6.308;2024-03-02T11:34:52;2.95;;;0.90;;
82265;SDS011;71866;53.340;-6.308;2024-03-02T11:37:19;1.23;;;0.60;;
82265;SDS011;71866;53.340;-6.308;2024-03-02T11:39:46;1.02;;;0.60;;
82265;SDS011;71866;53.340;-6.308;2024-03-02T11:42:15;2.07;;;0.47;;
82265;SDS011;71866;53.340;-6.308;2024-03-02T11:44:43;2.13;;;0.57;;
82265;SDS011;71866;53.340;-6.308;2024-03-02T11:47:11;1.33;;;0.63;;
82265;SDS011;71866;53.340;-6.308;2024-03-02T11:49:43;1.35;;;0.70;;
82265;SDS011;71866;53.340;-6.308;2024-03-02T11:52:10;1.83;;;0.73;;
82265;SDS011;71866;53.340;-6.308;2024-03-02T11:54:37;2.00;;;0.70;;
82265;SDS011;71866;53.340;-6.308;2024-03-02T11:57:05;3.20;;;0.80;;
82265;SDS011;71866;53.340;-6.308;2024-03-02T11:59:31;3.00;;;0.60;;
82265;SDS011;71866;53.340;-6.308;2024-03-02T12:01:58;1.85;;;0.50;;
82265;SDS011;71866;53.340;-6.308;2024-03-02T12:04:26;4.40;;;0.70;;
82265;SDS011;71866;53.340;-6.308;2024-03-02T12:07:00;1.63;;;0.60;;
82265;SDS011;71866;53.340;-6.308;2024-03-02T12:09:28;1.58;;;0.60;;
82265;SDS011;71866;53.340;-6.308;2024-03-02T12:12:10;2.45;;;0.80;;
82265;SDS011;71866;53.340;-6.308;2024-03-02T12:14:37;2.03;;;0.50;;
82265;SDS011;71866;53.340;-6.308;2024-03-02T12:17:04;1.85;;;0.50;;
82265;SDS011;71866;53.340;-6.308;2024-03-02T12:19:32;1.08;;;0.57;;
82265;SDS011;71866;53.340;-6.308;2024-03-02T12:21:59;1.43;;;0.40;;
82265;SDS011;71866;53.340;-6.308;2024-03-02T12:24:27;2.13;;;0.50;;
82265;SDS011;71866;53.340;-6.308;2024-03-02T12:26:55;2.25;;;0.60;;
82265;SDS011;71866;53.340;-6.308;2024-03-02T12:29:21;1.38;;;0.50;;
82265;SDS011;71866;53.340;-6.308;2024-03-02T12:31:49;2.80;;;0.65;;
82265;SDS011;71866;53.340;-6.308;2024-03-02T12:34:16;1.10;;;0.60;;
82265;SDS011;71866;53.340;-6.308;2024-03-02T12:36:43;1.30;;;0.50;;
82265;SDS011;71866;53.340;-6.308;2024-03-02T12:39:11;0.50;;;0.40;;
82265;SDS011;71866;53.340;-6.308;2024-03-02T12:41:38;0.45;;;0.40;;
82265;SDS011;71866;53.340;-6.308;2024-03-02T12:44:05;0.90;;;0.50;;
82265;SDS011;71866;53.340;-6.308;2024-03-02T12:46:32;1.00;;;0.40;;
82265;SDS011;71866;53.340;-6.308;2024-03-02T13:45:22;0.95;;;0.50;;
82265;SDS011;71866;53.340;-6.308;2024-03-02T13:47:49;1.17;;;0.35;;
82265;SDS011;71866;53.340;-6.308;2024-03-02T13:50:16;0.80;;;0.50;;
82265;SDS011;71866;53.340;-6.308;2024-03-02T13:52:43;1.67;;;0.50;;
82265;SDS011;71866;53.340;-6.308;2024-03-02T13:55:10;2.00;;;0.60;;
82265;SDS011;71866;53.340;-6.308;2024-03-02T13:57:37;2.00;;;0.60;;
82265;SDS011;71866;53.340;-6.308;2024-03-02T14:00:04;0.70;;;0.50;;
82265;SDS011;71866;53.340;-6.308;2024-03-02T14:02:31;1.85;;;0.40;;
82265;SDS011;71866;53.340;-6.308;2024-03-02T14:04:58;1.70;;;0.40;;
82265;SDS011;71866;53.340;-6.308;2024-03-02T14:07:24;2.58;;;0.40;;
82265;SDS011;71866;53.340;-6.308;2024-03-02T14:09:52;1.13;;;0.50;;
82265;SDS011;71866;53.340;-6.308;2024-03-02T14:12:18;1.52;;;0.65;;
82265;SDS011;71866;53.340;-6.308;2024-03-02T14:14:45;1.65;;;0.60;;
82265;SDS011;71866;53.340;-6.308;2024-03-02T14:17:12;1.55;;;0.70;;
82265;SDS011;71866;53.340;-6.308;2024-03-02T14:19:39;1.80;;;0.80;;
82265;SDS011;71866;53.340;-6.308;2024-03-02T14:22:07;2.88;;;0.93;;
82265;SDS011;71866;53.340;-6.308;2024-03-02T14:24:34;0.85;;;0.40;;
82265;SDS011;71866;53.340;-6.308;2024-03-02T14:27:00;1.52;;;0.60;;
82265;SDS011;71866;53.340;-6.308;2024-03-02T14:29:40;0.73;;;0.60;;
82265;SDS011;71866;53.340;-6.308;2024-03-02T14:32:07;1.27;;;0.63;;
82265;SDS011;71866;53.340;-6.308;2024-03-02T14:34:34;1.20;;;0.60;;
82265;SDS011;71866;53.340;-6.308;2024-03-02T14:37:05;1.60;;;0.70;;
82265;SDS011;71866;53.340;-6.308;2024-03-02T14:39:32;1.00;;;0.50;;
82265;SDS011;71866;53.340;-6.308;2024-03-02T14:41:59;1.98;;;0.75;;
82265;SDS011;71866;53.340;-6.308;2024-03-02T14:44:26;1.40;;;0.50;;
82265;SDS011;71866;53.340;-6.308;2024-03-02T14:46:53;1.02;;;0.57;;
82265;SDS011;71866;53.340;-6.308;2024-03-02T14:49:20;0.70;;;0.40;;
82265;SDS011;71866;53.340;-6.308;2024-03-02T14:51:47;0.60;;;0.40;;
82265;SDS011;71866;53.340;-6.308;2024-03-02T14:54:14;1.35;;;0.60;;
82265;SDS011;71866;53.340;-6.308;2024-03-02T14:56:41;0.95;;;0.60;;
82265;SDS011;71866;53.340;-6.308;2024-03-02T14:59:08;1.90;;;0.70;;
82265;SDS011;71866;53.340;-6.308;2024-03-02T15:01:35;2.63;;;0.70;;
82265;SDS011;71866;53.340;-6.308;2024-03-02T15:04:02;2.03;;;0.77;;
82265;SDS011;71866;53.340;-6.308;2024-03-02T15:06:29;1.05;;;0.50;;
82265;SDS011;71866;53.340;-6.308;2024-03-02T15:08:56;1.40;;;0.70;;
82265;SDS011;71866;53.340;-6.308;2024-03-02T15:11:22;2.42;;;1.10;;
82265;SDS011;71866;53.340;-6.308;2024-03-02T15:13:50;0.90;;;0.53;;
82265;SDS011;71866;53.340;-6.308;2024-03-02T15:16:16;2.10;;;0.90;;
82265;SDS011;71866;53.340;-6.308;2024-03-02T15:18:43;1.75;;;0.50;;
82265;SDS011;71866;53.340;-6.308;2024-03-02T15:21:10;2.45;;;0.60;;
82265;SDS011;71866;53.340;-6.308;2024-03-02T15:23:37;1.00;;;0.70;;
82265;SDS011;71866;53.340;-6.308;2024-03-02T15:26:03;1.70;;;0.70;;
82265;SDS011;71866;53.340;-6.308;2024-03-02T15:28:31;1.40;;;0.80;;
82265;SDS011;71866;53.340;-6.308;2024-03-02T15:30:57;1.70;;;0.82;;
82265;SDS011;71866;53.340;-6.308;2024-03-02T15:33:26;3.17;;;0.90;;
82265;SDS011;71866;53.340;-6.308;2024-03-02T15:35:53;1.47;;;0.80;;
82265;SDS011;71866;53.340;-6.308;2024-03-02T15:38:22;1.52;;;0.85;;